Culdrose, United Kingdom

9:08 PM GMT on February 11, 2016 (GMT +0000)
Culdrose Navy | | Change Station
CLOSE
Current Station
Airport
Location: Culdrose,
Elevation: 266 ft
Nearby Weather Stations

Elev 266 ft 50.08 °N, 5.26 °W | Updated 18 minutes ago

Mostly Cloudy
Mostly Cloudy
43 °F
Feels Like 39 °F
N
7
Wind Variable Wind from South

Today
High -- | Low -- °F
--% Chance of Precip.
Yesterday
High -- | Low -- °F
Precip. -- in
Pressure 29.47 in
Visibility 6.2 miles
Clouds Scattered Clouds 2200 ft
Mostly Cloudy 10000 ft
Windchill 39 °F
Dew Point 37 °F
Humidity 81%
Rainfall 0.00 in
Snow Depth Not available.
7:39 AM 5:31 PM
Waxing Crescent, 14% visible
METAR EGDR 112050Z 18006KT 9999 SCT022 BKN100 06/03 Q0998 WHT TEMPO 5000 SHRA SCT010 BKN016TCU GRN
Pressure 29.47 in
Visibility 6.2 miles
Clouds Scattered Clouds 2200 ft
Mostly Cloudy 10000 ft
Windchill 39 °F
Dew Point 37 °F
Humidity 81%
Rainfall 0.00 in
Snow Depth Not available.
7:39 AM 5:31 PM
Waxing Crescent, 14% visible
METAR EGDR 112050Z 18006KT 9999 SCT022 BKN100 06/03 Q0998 WHT TEMPO 5000 SHRA SCT010 BKN016TCU GRN

10-Day Weather Forecast

Almanac

Astronomy

Feb. 11, 2016 Rise Set
Actual Time
Civil Twilight
Nautical Twilight
Astronomical Twilight
Moon
Length of Visible Light
Length of Day
Tomorrow will be .
, % of the Moon is Illuminated

Today's Extremes

Country Highs Country Lows

Community

WunderPhotos

Upload Photos

1,892,155 photos uploaded!

WunderBlog® & News

Nearby

Air Quality

  Air Quality AQ Index Pollutant
Not available.

Snow Depth

Station Depth Elevation

Earthquake Activity

City Distance Mag. Time & Date
Minimum magnitude displayed is 2.5.

Coastal Water Temperatures

Place Temperature

Stations

Nearby Weather Stations

Station Location Temp. Windchill Dew Point Humidity Wind Precip. Elev Updated Type